Airfield :
LOGIN :

Register | Disclaimer

   EN    FR    IT 

 










Legend :    VFR   Marginal VFR   IFR   Intensive IFR   Very Intensive IFR
Visi :
Ceiling :
>= 8 km
>= 3000ft
5 to 8 km
1000 to 3000 ft
1500m to 5 km
500 to 1000 ft
800 to 1500m
200 to 500 ft
< 800m
< 200 ft
Symbols :   Thunderstorms  Fog  Heavy snow  Heavy precipitations  Wind > 20 kt
SIGMETs :     Misc.  Thunderstorms  Icing  Turbulence  Mountain Waves  Volcanic Ashes






- Airport Elevation : 204 ft
- IATA code : AGF


LFBA - Agen

CURRENT METAR :
  • 111500Z AUTO 12005KT 070V160 CAVOK 34/18 Q1012 TEMPO 4000 SHRA BKN090TCU

EXPIRED METARs :
  • 111430Z AUTO 13005KT 070V170 CAVOK 33/18 Q1012 TEMPO 4000 SHRA BKN090TCU
  • 111400Z AUTO 11007KT CAVOK 33/17 Q1012 TEMPO 18010KT SHRA BKN090TCU
  • 111330Z AUTO 12007KT 080V180 CAVOK 34/18 Q1012 TEMPO SHRA BKN090TCU
  • 111300Z AUTO 13007KT 090V170 CAVOK 33/18 Q1012 NOSIG
  • 111230Z AUTO 13008KT 100V160 CAVOK 32/18 Q1012 NOSIG

TAF TAF LFBA
Valid from the 11 at 15:00 until the 12 at 00:00 UTC


111400Z 1115/1124 12007KT CAVOK
TEMPO 1115/1124 19010KT 4000 SHRA BKN090TCU
PROB30
TEMPO 1117/1120 28020G45KT 2000 TSRA BKN065CB



MET'MAP, your aeronautical weather chart ! - Copyright ORBIFLY December 2007 - Disclaimer

ORBIFLY MET'MAP TEAM :

Programming & Development : Alexandra Zaïnal
Concept & original design : Baudouin d'Aumeries
Assistance for programming : Marc-Olivier Méhu
Technical & hardware support : Manuel Goepfert

Contact : metmap@orbifly.com




SOURCES & CREDITS :

   NOAA